Sun Valley, CA

12:46 AM PDT am 05. Juli 2015 (GMT -0700)
Burbank-Glendale-Pasadena | | Change Station
CLOSE
Current Station
Flughafen
Location: Burbank,
Höhe: 774 ft
Wetterstationen in der Umgebung

Höhe 774 ft 34.20 °N, 118.36 °W | Updated 53 minutes ago

Heiter
Heiter
64 °F
gefühlte 64 °F
N
6
Wind Wechselnd Wind aus Südost

Heute
Max. -- | schwach -- °F
--% Regenrisiko
Gestern
Max. -- | schwach -- °F
Precip. -- inch
5:47 AM 8:08 PM
Drittes Viertel, 87% visible
Druck 29.91 inch
Sichtweite 10.0 Meilen
Wolken Heiter
Taupunkt 58 °F
Feuchtigkeit 80%
Regen 0.00 inch
Schneehöhe Nicht verfügbar..
UV 0 von 12
Pollen 3.60 von 12
Luftqualität Nicht verfügbar..
Flu Activity Nicht verfügbar..
METAR KBUR 050653Z 14005KT 10SM CLR 18/14 A2994 RMK AO2 SLP126 T01780144

More Conditions Fewer Conditions

Druck 29.91 inch
Sichtweite 10.0 Meilen
Wolken Heiter
Taupunkt 58 °F
Feuchtigkeit 80%
Regen 0.00 inch
Schneehöhe Nicht verfügbar..
UV 0 von 12
Pollen 3.60 von 12
Luftqualität Nicht verfügbar..
Flu Activity Nicht verfügbar..
METAR KBUR 050653Z 14005KT 10SM CLR 18/14 A2994 RMK AO2 SLP126 T01780144

More Conditions Fewer Conditions

10-Day Weather Forecast

×

Almanac

Astronomie

Jul. 05, 2015 Aufgang Untergang
Genaue Zeit
Bürgerliche Dämmerung
Nautische Dämmerung
Astronomische Dämmerung
Mond
Länge des sichtbaren Lichts
Tageslänge
Tomorrow will be .
, % of the Moon is Illuminated

Heutige Rekorde

State Highs State Lows

Community

WunderPhotos

Upload Photos

1,835,215 Fotos hochgeladen!

WunderBlogs® & News

Nearby

Luftqualität

  Luftqualität LQ Index Schadstoff
Not available.

Schneehöhe

Station Depth Höhe

Erdbebenaktivität

Stadt Distance Mag. Time & Date
Minimum magnitude displayed is 2.5.

küstennahe Wassertemperaturen

Ort Temperatur

Stations

Wetterstationen in der Umgebung

Stationsstandort Temp. Windchill Taupunkt Feuchtigkeit Wind Precip. Höhe Aktualisiert Art